Main page
METAR-TAF:

METAR-TAF

Airports :

Hasvik Airport

Hasvik, Norway

latitude: 70-29N, longitude: 022-09E, elevation: 10 m

Current weather observation

The report was made 4 hours and 44 minutes ago, at 21:28 UTC
Wind 2 kt from the South
Temperature -3°C
Humidity 100%
Pressure 990 hPa
Visibility: 0600 m
heavy snow

METAR: ENHK 242128Z 19002KT 0600 +SN VV004 M03/M03 Q0990

Time: 03:12 (02:12 UTC)


TAF: missing

Weather observations and forecasts of more than 4000 airports (METAR and TAF reports).

The available stations are represented by yellow and red dots on the map.

Hover mouse over dot to see the name of the station.

Then click to see weather observations and forecasts.

To change the map : click on the green buttons with a black cross to zoom in, on the green button with a dash to zoom out, or on the green arrows for adjacent maps.


METAR-TAF: